Time;durP1;ratioP1;P1;durP2;ratioP2;P2;SDS_P1;SDS_P2;PMS_P1;PMS_P2;Temp;Humidity;BMP_temperature;BMP_pressure;BME280_temperature;BME280_humidity;BME280_pressure;Samples;Min_cycle;Max_cycle;Signal;HPM_P1;HPM_P2
2023/06/18 00:00:07;;;;;;;10.10;7.40;;;;;;;21.96;46.06;98992.20;107414;1253;60058;-39
2023/06/18 00:02:35;;;;;;;11.20;8.00;;;;;;;21.95;46.12;98989.46;107374;1253;60026;-40
2023/06/18 00:05:03;;;;;;;9.70;8.00;;;;;;;21.94;46.13;98991.23;107455;1253;73089;-40
2023/06/18 00:07:31;;;;;;;10.50;8.00;;;;;;;21.93;46.04;98990.54;107592;1253;67556;-40
2023/06/18 00:09:59;;;;;;;8.60;7.70;;;;;;;21.92;46.18;98987.64;107418;1254;71428;-40
2023/06/18 00:12:26;;;;;;;10.80;8.30;;;;;;;21.92;46.10;98988.52;107595;1253;60396;-40
2023/06/18 00:14:54;;;;;;;10.60;7.80;;;;;;;21.92;46.04;98988.67;107450;1253;60060;-40
2023/06/18 00:17:22;;;;;;;10.90;8.50;;;;;;;21.92;46.14;98985.61;107481;1253;73888;-40
2023/06/18 00:19:50;;;;;;;9.70;7.70;;;;;;;21.92;46.00;98984.35;107598;1257;67902;-40
2023/06/18 00:22:18;;;;;;;11.70;8.20;;;;;;;21.92;46.38;98979.38;107401;1258;72708;-40
2023/06/18 00:24:45;;;;;;;10.50;7.70;;;;;;;21.92;46.21;98977.17;107479;1254;60606;-40
2023/06/18 00:27:13;;;;;;;8.20;7.30;;;;;;;21.91;46.10;98977.74;107488;1254;60360;-40
2023/06/18 00:29:47;;;;;;;9.10;8.10;;;;;;;21.91;46.40;98976.02;107497;1254;73838;-39
2023/06/18 00:32:15;;;;;;;10.40;8.20;;;;;;;21.89;46.58;98980.31;107443;1253;67685;-40
2023/06/18 00:34:42;;;;;;;10.30;8.50;;;;;;;21.88;46.65;98976.56;107463;1258;72674;-40
2023/06/18 00:37:10;;;;;;;9.30;8.10;;;;;;;21.87;46.73;98980.73;107481;1254;60534;-40
2023/06/18 00:39:38;;;;;;;10.60;8.70;;;;;;;21.85;46.57;98975.50;107557;1255;59311;-39
2023/06/18 00:42:07;;;;;;;9.50;8.60;;;;;;;21.84;46.80;98977.89;107455;1258;74318;-40
2023/06/18 00:44:39;;;;;;;9.00;8.10;;;;;;;21.84;46.94;98976.39;107278;1254;67159;-40
2023/06/18 00:47:13;;;;;;;10.60;8.40;;;;;;;21.83;46.75;98976.98;107460;1255;72782;-40
2023/06/18 00:49:41;;;;;;;11.30;8.20;;;;;;;21.82;46.86;98976.15;107457;1254;60298;-40
2023/06/18 00:52:12;;;;;;;10.40;8.40;;;;;;;21.80;46.83;98975.63;107451;1253;60399;-40
2023/06/18 00:54:41;;;;;;;10.00;8.10;;;;;;;21.80;46.95;98975.17;107403;1253;74338;-40
2023/06/18 00:57:09;;;;;;;13.30;8.30;;;;;;;21.79;46.81;98975.14;107526;1253;67677;-40
2023/06/18 00:59:37;;;;;;;9.00;7.80;;;;;;;21.78;46.46;98976.39;107479;1258;72072;-39
2023/06/18 01:02:07;;;;;;;9.80;7.00;;;;;;;21.77;46.70;98977.42;107300;1253;60413;-39
2023/06/18 01:04:36;;;;;;;8.80;7.90;;;;;;;21.77;46.67;98977.51;107461;1254;60420;-40
2023/06/18 01:07:12;;;;;;;10.90;8.00;;;;;;;21.76;46.66;98973.11;107450;1253;73875;-39
2023/06/18 01:09:42;;;;;;;10.60;8.50;;;;;;;21.76;46.67;98978.32;107484;1253;67560;-40
2023/06/18 01:12:10;;;;;;;11.70;8.50;;;;;;;21.75;46.67;98974.64;107473;1253;71353;-40
2023/06/18 01:14:37;;;;;;;12.70;8.00;;;;;;;21.76;47.05;98977.13;107475;1253;60383;-40
2023/06/18 01:17:05;;;;;;;11.10;7.70;;;;;;;21.76;47.12;98977.92;107355;1255;60401;-40
2023/06/18 01:19:40;;;;;;;10.10;7.70;;;;;;;21.76;47.55;98979.03;107244;1253;73917;-40
2023/06/18 01:22:33;;;;;;;9.50;8.00;;;;;;;21.75;47.90;98980.23;107656;1253;66338;-40
2023/06/18 01:25:02;;;;;;;10.00;8.10;;;;;;;21.73;48.23;98986.77;107446;1254;72706;-39
2023/06/18 01:27:33;;;;;;;10.50;8.10;;;;;;;21.69;48.53;98987.53;107256;1254;60419;-39
2023/06/18 01:30:01;;;;;;;9.00;7.70;;;;;;;21.65;48.39;98988.27;107481;1253;60432;-40
2023/06/18 01:32:29;;;;;;;9.00;8.00;;;;;;;21.62;47.60;98985.86;107339;1258;73487;-40
2023/06/18 01:34:57;;;;;;;11.30;8.20;;;;;;;21.60;47.53;98988.28;107457;1258;67612;-40
2023/06/18 01:37:44;;;;;;;9.80;7.50;;;;;;;21.59;47.22;98988.55;107108;1256;72736;-40
2023/06/18 01:40:22;;;;;;;8.80;7.90;;;;;;;21.59;47.51;98986.84;107268;1259;60242;-40
2023/06/18 01:43:06;;;;;;;10.20;7.80;;;;;;;21.57;46.96;98988.23;107396;1254;60258;-40
2023/06/18 01:45:46;;;;;;;9.20;8.30;;;;;;;21.56;46.81;98985.40;107373;1254;73892;-40
2023/06/18 01:48:15;;;;;;;11.40;8.50;;;;;;;21.56;46.72;98985.89;107411;1259;67692;-40
2023/06/18 01:50:44;;;;;;;10.30;8.40;;;;;;;21.56;46.53;98988.73;107436;1253;71517;-40
2023/06/18 01:53:15;;;;;;;11.00;8.10;;;;;;;21.57;46.76;98983.90;107365;1254;60406;-41
2023/06/18 01:55:44;;;;;;;13.30;9.20;;;;;;;21.56;46.78;98986.98;107395;1254;60366;-40
2023/06/18 01:58:14;;;;;;;10.20;8.00;;;;;;;21.56;46.53;98986.06;107579;1257;72312;-40
2023/06/18 02:00:42;;;;;;;9.80;8.40;;;;;;;21.55;46.68;98988.84;107443;1258;66722;-40
2023/06/18 02:03:10;;;;;;;13.40;9.40;;;;;;;21.55;46.54;98993.33;107629;1252;70676;-40
2023/06/18 02:05:38;;;;;;;9.70;8.70;;;;;;;21.55;46.48;98993.87;107540;1253;60993;-39
2023/06/18 02:08:06;;;;;;;12.80;8.90;;;;;;;21.55;46.92;98996.40;107451;1253;60417;-40
2023/06/18 02:10:33;;;;;;;12.50;8.70;;;;;;;21.55;46.89;98998.23;107412;1254;72644;-40
2023/06/18 02:13:01;;;;;;;11.00;8.90;;;;;;;21.54;46.96;98995.98;107388;1253;66800;-40
2023/06/18 02:15:30;;;;;;;12.10;9.40;;;;;;;21.53;47.13;98994.80;107672;1254;71412;-40
2023/06/18 02:17:57;;;;;;;10.00;8.80;;;;;;;21.52;47.21;98999.08;107479;1253;59956;-39
2023/06/18 02:20:25;;;;;;;11.70;8.50;;;;;;;21.53;47.17;98996.16;107461;1253;60400;-39
2023/06/18 02:22:54;;;;;;;11.70;8.40;;;;;;;21.53;47.59;98997.02;107441;1253;73937;-39
2023/06/18 02:25:28;;;;;;;11.00;8.70;;;;;;;21.53;47.45;98998.52;107413;1253;65826;-40
2023/06/18 02:28:01;;;;;;;9.90;8.70;;;;;;;21.53;47.71;99000.48;107506;1256;72876;-39
2023/06/18 02:30:29;;;;;;;10.90;8.50;;;;;;;21.54;47.76;99005.50;107459;1258;60534;-39
2023/06/18 02:33:01;;;;;;;11.90;8.80;;;;;;;21.54;48.00;99011.95;107453;1253;60380;-39
2023/06/18 02:35:29;;;;;;;13.30;9.10;;;;;;;21.55;47.85;99012.73;107438;1253;72444;-39
2023/06/18 02:37:57;;;;;;;10.30;8.60;;;;;;;21.55;47.88;99011.37;107471;1253;65319;-39
2023/06/18 02:40:25;;;;;;;12.20;8.90;;;;;;;21.55;47.82;99016.19;107468;1254;72652;-40
2023/06/18 02:42:53;;;;;;;12.00;9.10;;;;;;;21.55;47.87;99013.73;107284;1256;60506;-40
2023/06/18 02:45:21;;;;;;;11.70;9.20;;;;;;;21.55;48.25;99010.44;107509;1253;60419;-40
2023/06/18 02:47:51;;;;;;;10.80;8.40;;;;;;;21.54;48.20;99014.73;107458;1258;72576;-40
2023/06/18 02:50:19;;;;;;;11.50;9.00;;;;;;;21.53;48.10;99008.04;107454;1254;68181;-39
2023/06/18 02:52:48;;;;;;;10.60;9.20;;;;;;;21.53;48.48;99014.05;107211;1256;71479;-40
2023/06/18 02:55:16;;;;;;;10.40;8.80;;;;;;;21.54;48.64;99013.94;107552;1253;60426;-39
2023/06/18 02:57:45;;;;;;;11.00;9.20;;;;;;;21.55;48.70;99017.20;107442;1253;60518;-40
2023/06/18 03:00:13;;;;;;;12.10;9.20;;;;;;;21.57;48.89;99014.00;107311;1253;73847;-40
2023/06/18 03:02:44;;;;;;;13.70;9.20;;;;;;;21.59;49.59;99010.32;107407;1258;66611;-40
2023/06/18 03:05:24;;;;;;;9.90;8.90;;;;;;;21.59;49.46;99008.64;107390;1254;72750;-40
2023/06/18 03:07:52;;;;;;;13.40;8.70;;;;;;;21.59;49.17;99009.90;107401;1259;60426;-40
2023/06/18 03:10:20;;;;;;;10.70;9.00;;;;;;;21.61;49.29;99010.50;107570;1253;59662;-39
2023/06/18 03:12:50;;;;;;;9.90;8.80;;;;;;;21.62;48.86;99011.46;107430;1253;73842;-39
2023/06/18 03:15:38;;;;;;;10.10;9.00;;;;;;;21.64;48.72;99015.49;107480;1256;66782;-39
2023/06/18 03:18:06;;;;;;;10.50;9.10;;;;;;;21.65;48.85;99014.46;107400;1254;71413;-39
2023/06/18 03:20:35;;;;;;;10.50;9.10;;;;;;;21.65;48.62;99014.20;107429;1253;60959;-39
2023/06/18 03:23:02;;;;;;;12.30;9.20;;;;;;;21.68;48.97;99017.45;107449;1253;59657;-39
2023/06/18 03:25:30;;;;;;;10.40;9.40;;;;;;;21.68;49.05;99021.98;107247;1253;72593;-40
2023/06/18 03:27:58;;;;;;;10.90;8.80;;;;;;;21.69;48.76;99021.59;107415;1258;66333;-39
2023/06/18 03:30:28;;;;;;;12.30;8.80;;;;;;;21.71;49.04;99021.03;107426;1254;71506;-39
2023/06/18 03:32:56;;;;;;;10.90;8.60;;;;;;;21.73;49.44;99023.05;107417;1254;59364;-40
2023/06/18 03:35:24;;;;;;;11.00;8.90;;;;;;;21.73;49.04;99022.46;107431;1254;60032;-40
2023/06/18 03:37:52;;;;;;;9.90;8.90;;;;;;;21.75;48.88;99027.38;107457;1254;73859;-39
2023/06/18 03:40:20;;;;;;;12.00;9.60;;;;;;;21.76;48.95;99026.73;107412;1254;67615;-40
2023/06/18 03:42:48;;;;;;;9.70;8.60;;;;;;;21.78;48.91;99030.83;107474;1254;72685;-39
2023/06/18 03:45:20;;;;;;;9.80;8.80;;;;;;;21.80;48.54;99030.94;107454;1254;59560;-39
2023/06/18 03:47:48;;;;;;;10.00;8.60;;;;;;;21.82;48.39;99031.27;107439;1254;60448;-40
2023/06/18 03:50:18;;;;;;;10.80;8.80;;;;;;;21.83;48.51;99028.95;107432;1254;73890;-40
2023/06/18 03:52:46;;;;;;;9.70;8.70;;;;;;;21.82;48.55;99028.50;107265;1254;67893;-39
2023/06/18 03:55:15;;;;;;;12.20;9.00;;;;;;;21.83;48.63;99028.39;107267;1260;71050;-40
2023/06/18 03:57:43;;;;;;;10.80;9.70;;;;;;;21.85;48.72;99031.63;107448;1254;60496;-40
2023/06/18 04:00:12;;;;;;;9.90;8.90;;;;;;;21.87;48.61;99030.16;107447;1254;60366;-40
2023/06/18 04:02:40;;;;;;;10.40;9.00;;;;;;;21.89;48.51;99035.62;107549;1253;73959;-41
2023/06/18 04:05:12;;;;;;;11.70;9.30;;;;;;;21.91;48.94;99033.02;107397;1254;67599;-39
2023/06/18 04:07:39;;;;;;;12.70;9.50;;;;;;;21.94;49.10;99035.06;107361;1256;71052;-39
2023/06/18 04:10:08;;;;;;;11.10;8.30;;;;;;;22.00;48.80;99032.91;107408;1254;60367;-41
2023/06/18 04:12:36;;;;;;;10.30;9.20;;;;;;;22.05;48.47;99034.41;107348;1254;60531;-40
2023/06/18 04:15:04;;;;;;;9.90;8.90;;;;;;;22.10;48.71;99040.23;107410;1258;73853;-40
2023/06/18 04:17:41;;;;;;;10.60;9.00;;;;;;;22.16;48.87;99040.59;107220;1254;67605;-40
2023/06/18 04:20:12;;;;;;;9.80;8.80;;;;;;;22.22;49.10;99037.33;107395;1254;71426;-40
2023/06/18 04:22:40;;;;;;;9.80;8.30;;;;;;;22.26;49.19;99038.82;107485;1254;60990;-40
2023/06/18 04:25:09;;;;;;;11.60;9.20;;;;;;;22.34;49.11;99035.58;107441;1254;60336;-40
2023/06/18 04:27:38;;;;;;;11.20;8.40;;;;;;;22.41;48.86;99040.16;107474;1253;73840;-40
2023/06/18 04:30:07;;;;;;;10.20;9.20;;;;;;;22.46;48.95;99039.25;107322;1254;66839;-40
2023/06/18 04:32:35;;;;;;;12.50;9.30;;;;;;;22.51;49.15;99043.41;107282;1257;71370;-40
2023/06/18 04:35:04;;;;;;;14.10;9.60;;;;;;;22.57;49.49;99048.11;107328;1254;60590;-40
2023/06/18 04:37:32;;;;;;;10.60;9.40;;;;;;;22.64;49.46;99043.52;107286;1254;60045;-40
2023/06/18 04:39:59;;;;;;;11.20;9.70;;;;;;;22.71;49.52;99043.98;107412;1254;73844;-40
2023/06/18 04:42:29;;;;;;;10.70;9.30;;;;;;;22.78;49.50;99043.69;107290;1254;66265;-40
2023/06/18 04:44:57;;;;;;;11.90;9.20;;;;;;;22.84;49.48;99042.59;107439;1254;71378;-40
2023/06/18 04:47:25;;;;;;;10.80;9.30;;;;;;;22.90;49.47;99048.38;107405;1254;60446;-40
2023/06/18 04:49:54;;;;;;;11.10;9.80;;;;;;;22.96;49.80;99050.88;107454;1253;60492;-40
2023/06/18 04:52:22;;;;;;;11.30;9.90;;;;;;;23.02;49.57;99055.16;107332;1254;72550;-40
2023/06/18 04:54:52;;;;;;;13.70;10.00;;;;;;;23.08;49.15;99055.48;107441;1254;66269;-40
2023/06/18 04:57:22;;;;;;;11.10;9.00;;;;;;;23.15;49.36;99054.36;107375;1255;71409;-39
2023/06/18 04:59:49;;;;;;;10.60;9.50;;;;;;;23.22;48.85;99059.21;107240;1254;60410;-40
2023/06/18 05:02:24;;;;;;;11.10;9.60;;;;;;;23.29;48.59;99063.60;107459;1254;60365;-41
2023/06/18 05:05:15;;;;;;;11.30;9.50;;;;;;;23.39;48.93;99066.73;107544;1258;74533;-42
2023/06/18 05:07:47;;;;;;;10.70;9.50;;;;;;;23.46;49.68;99073.89;107661;1253;67920;-40
2023/06/18 05:10:18;;;;;;;11.80;9.10;;;;;;;23.53;49.70;99069.93;107447;1254;72736;-41
2023/06/18 05:12:50;;;;;;;10.70;9.60;;;;;;;23.62;49.69;99067.46;107353;1253;60319;-39
2023/06/18 05:15:43;;;;;;;10.80;9.30;;;;;;;23.66;49.97;99067.66;107545;1253;60757;-41
2023/06/18 05:18:17;;;;;;;11.90;9.60;;;;;;;23.78;50.13;99075.02;107516;1254;75446;-41
2023/06/18 05:20:45;;;;;;;11.70;9.80;;;;;;;23.84;49.79;99080.84;107689;1254;67588;-40
2023/06/18 05:23:13;;;;;;;11.00;9.20;;;;;;;23.92;49.25;99081.08;107563;1254;72962;-40
2023/06/18 05:25:40;;;;;;;15.20;9.40;;;;;;;23.99;48.95;99084.02;107369;1254;60551;-41
2023/06/18 05:28:08;;;;;;;12.30;9.50;;;;;;;24.05;48.41;99083.00;107560;1256;59257;-40
2023/06/18 05:30:37;;;;;;;10.40;8.80;;;;;;;24.12;47.77;99084.52;107471;1253;73856;-40
2023/06/18 05:33:05;;;;;;;10.50;8.90;;;;;;;24.19;47.45;99084.64;107332;1253;66432;-40
2023/06/18 05:35:33;;;;;;;10.70;9.20;;;;;;;24.28;47.30;99088.23;107495;1253;71067;-40
2023/06/18 05:38:02;;;;;;;11.80;8.70;;;;;;;24.36;47.18;99084.36;107450;1254;60421;-41
2023/06/18 05:40:29;;;;;;;13.40;9.30;;;;;;;24.42;46.92;99089.83;107455;1253;60399;-40
2023/06/18 05:42:59;;;;;;;15.00;9.30;;;;;;;24.46;47.02;99087.27;107495;1254;72622;-40
2023/06/18 05:45:29;;;;;;;10.70;9.50;;;;;;;24.50;46.70;99092.80;107415;1254;67962;-41
2023/06/18 05:47:57;;;;;;;10.50;9.10;;;;;;;24.53;46.99;99090.42;107450;1254;72786;-40
2023/06/18 05:50:34;;;;;;;13.30;8.60;;;;;;;24.58;47.45;99091.31;107452;1254;60299;-40
2023/06/18 05:53:01;;;;;;;11.00;9.40;;;;;;;24.63;47.04;99094.52;107480;1253;60361;-40
2023/06/18 05:55:29;;;;;;;10.90;9.10;;;;;;;24.67;46.58;99093.30;107366;1254;73932;-40
2023/06/18 05:57:57;;;;;;;11.70;9.00;;;;;;;24.73;46.39;99095.80;107387;1254;66612;-41
2023/06/18 06:00:25;;;;;;;11.30;9.30;;;;;;;24.76;46.04;99099.28;107559;1254;73335;-40
2023/06/18 06:02:54;;;;;;;10.90;9.10;;;;;;;24.81;46.27;99098.21;107448;1258;60480;-40
2023/06/18 06:05:22;;;;;;;9.80;8.70;;;;;;;24.84;46.34;99096.64;107287;1254;60959;-40
2023/06/18 06:07:50;;;;;;;9.50;8.30;;;;;;;24.90;46.26;99098.80;107129;1254;72656;-40
2023/06/18 06:10:18;;;;;;;12.80;9.40;;;;;;;24.97;46.25;99100.15;107189;1254;67575;-40
2023/06/18 06:12:48;;;;;;;10.70;8.10;;;;;;;25.04;46.27;99104.83;107219;1253;71428;-40
2023/06/18 06:15:19;;;;;;;11.80;9.10;;;;;;;25.12;46.17;99108.30;107487;1253;60415;-40
2023/06/18 06:17:48;;;;;;;10.40;9.20;;;;;;;25.18;45.72;99110.80;107381;1256;60336;-40
2023/06/18 06:20:17;;;;;;;;;;;;;;;25.24;45.47;99111.62;107401;1254;73231;-40
2023/06/18 06:22:46;;;;;;;9.30;8.40;;;;;;;25.25;45.61;99114.85;107335;1253;67692;-40
2023/06/18 06:25:15;;;;;;;9.50;8.50;;;;;;;25.28;45.81;99115.26;107170;1255;72631;-40
2023/06/18 06:27:43;;;;;;;9.80;8.30;;;;;;;25.37;46.12;99112.79;107318;1254;60451;-40
2023/06/18 06:30:11;;;;;;;10.60;8.20;;;;;;;25.44;45.50;99116.02;107341;1253;60407;-39
2023/06/18 06:32:39;;;;;;;12.80;7.80;;;;;;;25.53;45.42;99118.33;107363;1254;73940;-40
2023/06/18 06:35:07;;;;;;;9.50;8.10;;;;;;;25.62;45.17;99120.88;107391;1253;66764;-40
2023/06/18 06:37:36;;;;;;;13.20;8.00;;;;;;;25.69;44.37;99118.94;107449;1254;71436;-40
2023/06/18 06:40:06;;;;;;;9.20;8.00;;;;;;;25.80;44.61;99118.30;107586;1257;60399;-39
2023/06/18 06:42:36;;;;;;;9.20;8.10;;;;;;;25.95;44.15;99121.48;107392;1253;60025;-40
2023/06/18 06:45:22;;;;;;;11.60;8.40;;;;;;;26.17;43.98;99125.04;107357;1254;72580;-40
2023/06/18 06:48:16;;;;;;;11.60;8.60;;;;;;;26.37;43.38;99118.67;107198;1253;67132;-40
2023/06/18 06:50:53;;;;;;;10.60;8.40;;;;;;;26.54;43.68;99120.10;107272;1253;72689;-40
2023/06/18 06:53:32;;;;;;;10.50;8.10;;;;;;;26.71;43.06;99117.02;108139;1254;60364;-40
2023/06/18 06:56:00;;;;;;;11.20;8.10;;;;;;;26.86;43.01;99118.19;107599;1253;60281;-40
2023/06/18 06:58:28;;;;;;;9.30;7.40;;;;;;;27.00;42.00;99119.76;107351;1254;72551;-40
2023/06/18 07:00:56;;;;;;;9.90;8.10;;;;;;;27.11;40.70;99120.72;107316;1253;67599;-40
2023/06/18 07:03:24;;;;;;;13.90;8.30;;;;;;;27.22;39.78;99125.53;107500;1253;72740;-40
2023/06/18 07:05:52;;;;;;;11.10;7.60;;;;;;;27.32;40.24;99127.98;107328;1254;60506;-40
2023/06/18 07:08:19;;;;;;;9.20;7.70;;;;;;;27.37;40.41;99128.80;107319;1254;60268;-40
2023/06/18 07:10:47;;;;;;;11.50;8.10;;;;;;;27.42;39.95;99132.21;107310;1254;73095;-40
2023/06/18 07:13:15;;;;;;;10.50;8.10;;;;;;;27.46;40.05;99133.98;107314;1256;67984;-40
2023/06/18 07:15:42;;;;;;;13.30;7.90;;;;;;;27.53;39.35;99131.29;107367;1254;71382;-40
2023/06/18 07:18:10;;;;;;;9.80;8.20;;;;;;;27.63;39.65;99130.29;107387;1254;60426;-40
2023/06/18 07:20:38;;;;;;;11.90;8.30;;;;;;;27.74;39.20;99127.62;107273;1253;60555;-39
2023/06/18 07:23:05;;;;;;;9.80;7.00;;;;;;;27.81;38.42;99130.38;107275;1254;72782;-40
2023/06/18 07:25:33;;;;;;;10.10;7.30;;;;;;;27.85;37.77;99133.85;107334;1254;67550;-40
2023/06/18 07:28:00;;;;;;;9.20;7.20;;;;;;;27.91;37.40;99133.08;107297;1256;72694;-39
2023/06/18 07:30:28;;;;;;;10.00;7.80;;;;;;;27.98;37.80;99131.61;107290;1260;61070;-40
2023/06/18 07:32:56;;;;;;;10.80;7.00;;;;;;;28.06;37.42;99132.96;107313;1254;60448;-40
2023/06/18 07:35:23;;;;;;;11.70;7.30;;;;;;;28.17;36.86;99131.98;107294;1254;73889;-40
2023/06/18 07:37:52;;;;;;;8.20;7.40;;;;;;;28.28;36.85;99131.38;107216;1254;66761;-40
2023/06/18 07:40:20;;;;;;;10.50;7.20;;;;;;;28.36;36.37;99129.66;107334;1258;72661;-41
2023/06/18 07:42:48;;;;;;;8.40;7.50;;;;;;;28.39;36.30;99135.98;107405;1254;60507;-40
2023/06/18 07:45:15;;;;;;;10.80;7.80;;;;;;;28.41;36.57;99130.34;107313;1254;60277;-40
2023/06/18 07:47:43;;;;;;;10.40;7.40;;;;;;;28.48;36.93;99130.05;107352;1255;72575;-40
2023/06/18 07:50:11;;;;;;;7.80;7.00;;;;;;;28.54;37.29;99131.42;107363;1256;67930;-40
2023/06/18 07:52:39;;;;;;;8.00;7.20;;;;;;;28.63;36.50;99130.27;107207;1255;72736;-40
2023/06/18 07:55:07;;;;;;;8.20;6.90;;;;;;;28.73;35.93;99130.27;107244;1256;60439;-40
2023/06/18 07:57:35;;;;;;;10.40;6.90;;;;;;;28.82;35.60;99134.70;107263;1255;60323;-40
2023/06/18 08:00:03;;;;;;;7.90;7.00;;;;;;;28.89;35.43;99134.73;107241;1256;73943;-40
2023/06/18 08:02:38;;;;;;;7.80;6.90;;;;;;;28.97;35.06;99140.42;107205;1255;66300;-40
2023/06/18 08:05:07;;;;;;;7.60;6.80;;;;;;;29.02;35.01;99139.40;107277;1256;72692;-41
2023/06/18 08:07:36;;;;;;;;;;;;;;;29.06;35.11;99135.80;107807;1253;60390;-40
2023/06/18 08:10:05;;;;;;;8.70;7.00;;;;;;;29.06;35.48;99136.55;107464;1253;60351;-40
2023/06/18 08:12:33;;;;;;;10.30;7.80;;;;;;;29.06;35.49;99134.67;107297;1255;72593;-40
2023/06/18 08:15:00;;;;;;;8.40;7.60;;;;;;;29.16;34.75;99132.35;107361;1253;67614;-41
2023/06/18 08:17:28;;;;;;;9.10;6.80;;;;;;;29.28;34.71;99134.31;107124;1253;303862;-40
2023/06/18 08:20:48;;;;;;;8.00;6.70;;;;;;;29.45;33.59;99128.26;104235;1291;600997;-39
2023/06/18 08:23:16;;;;;;;9.70;6.70;;;;;;;29.56;33.43;99126.67;106662;1266;59401;-40
2023/06/18 08:25:43;;;;;;;7.60;6.60;;;;;;;29.64;33.07;99128.63;106603;1264;60691;-39
2023/06/18 08:28:11;;;;;;;9.20;6.90;;;;;;;29.61;32.05;99124.29;106515;1266;72184;-40
2023/06/18 08:30:38;;;;;;;7.60;6.70;;;;;;;29.55;32.51;99123.22;106579;1266;67940;-40
2023/06/18 08:33:10;;;;;;;10.30;7.10;;;;;;;29.56;32.84;99124.54;106696;1266;72688;-40
2023/06/18 08:35:40;;;;;;;8.20;7.10;;;;;;;29.61;33.80;99126.57;106484;1263;60341;-40
2023/06/18 08:38:08;;;;;;;8.10;7.10;;;;;;;29.71;34.15;99124.52;106810;1263;59192;-40
2023/06/18 08:40:51;;;;;;;7.60;6.50;;;;;;;29.85;32.85;99125.60;106829;1263;70940;-40
2023/06/18 08:43:22;;;;;;;8.10;6.60;;;;;;;29.94;31.14;99128.75;106798;1264;67567;-40
2023/06/18 08:45:53;;;;;;;9.20;6.40;;;;;;;29.98;31.47;99128.16;106744;1263;72669;-40
2023/06/18 08:48:26;;;;;;;8.30;6.50;;;;;;;29.99;30.88;99130.15;106858;1263;60097;-40
2023/06/18 08:51:04;;;;;;;7.20;5.90;;;;;;;29.97;29.61;99126.02;106823;1263;60007;-40
2023/06/18 08:53:45;;;;;;;6.80;5.90;;;;;;;29.93;29.48;99123.80;107455;1263;73124;-41
2023/06/18 08:56:14;;;;;;;6.30;5.70;;;;;;;29.91;29.01;99124.30;106882;1268;66519;-40
2023/06/18 08:58:48;;;;;;;;;;;;;;;29.86;29.63;99126.83;106879;1264;71166;-40
2023/06/18 09:01:17;;;;;;;7.30;5.70;;;;;;;29.71;29.98;99126.40;106591;1268;59714;-40
2023/06/18 09:03:45;;;;;;;7.00;6.00;;;;;;;29.60;29.66;99123.10;106734;1266;59237;-40
2023/06/18 09:06:12;;;;;;;8.30;6.00;;;;;;;29.55;29.38;99121.23;106810;1266;73152;-40
2023/06/18 09:08:40;;;;;;;7.90;6.40;;;;;;;29.49;29.52;99123.86;106745;1266;66353;-40
2023/06/18 09:11:08;;;;;;;9.40;5.90;;;;;;;29.45;29.95;99125.30;106743;1266;72028;-40
2023/06/18 09:13:40;;;;;;;8.10;6.20;;;;;;;29.41;29.68;99124.76;106707;1268;59676;-40
2023/06/18 09:16:09;;;;;;;7.50;6.40;;;;;;;29.35;30.57;99128.05;106789;1264;59638;-41
2023/06/18 09:18:36;;;;;;;9.40;6.00;;;;;;;29.30;31.03;99127.05;106873;1264;73093;-41
2023/06/18 09:21:04;;;;;;;6.90;6.20;;;;;;;29.27;29.89;99126.52;106854;1263;66815;-41
2023/06/18 09:23:32;;;;;;;7.40;6.10;;;;;;;29.26;30.22;99122.30;106694;1263;72686;-41
2023/06/18 09:26:00;;;;;;;7.30;6.00;;;;;;;29.26;29.90;99125.45;106685;1263;60659;-40
2023/06/18 09:28:28;;;;;;;8.20;6.20;;;;;;;29.29;29.19;99124.67;106861;1266;60053;-40
2023/06/18 09:31:01;;;;;;;7.50;5.80;;;;;;;29.31;28.86;99117.54;106800;1263;73035;-40
2023/06/18 09:33:29;;;;;;;6.80;5.90;;;;;;;29.34;29.71;99116.78;106890;1263;67585;-40
2023/06/18 09:35:58;;;;;;;6.70;6.00;;;;;;;29.48;30.22;99115.63;106872;1263;72823;-40
2023/06/18 09:38:43;;;;;;;8.00;6.10;;;;;;;29.67;29.88;99115.45;106840;1263;59462;-45
2023/06/18 09:41:17;;;;;;;6.90;6.00;;;;;;;29.94;28.41;99111.41;106659;1262;62047;-40
2023/06/18 09:43:48;;;;;;;8.20;6.00;;;;;;;30.20;27.82;99109.76;106587;1268;73039;-40
2023/06/18 09:46:16;;;;;;;6.40;5.80;;;;;;;30.44;27.54;99106.39;106793;1263;67014;-40
2023/06/18 09:48:46;;;;;;;6.10;5.50;;;;;;;30.67;28.29;99102.23;106677;1262;71466;-40
2023/06/18 09:51:17;;;;;;;6.80;6.00;;;;;;;30.87;28.24;99102.31;106740;1263;60406;-40
2023/06/18 09:53:55;;;;;;;7.70;5.90;;;;;;;31.05;28.67;99101.82;106746;1263;59689;-40
2023/06/18 09:56:22;;;;;;;6.50;5.60;;;;;;;31.20;27.65;99106.04;106735;1264;73097;-40
2023/06/18 09:58:50;;;;;;;7.60;6.30;;;;;;;31.29;27.27;99105.03;106838;1264;67601;-40
2023/06/18 10:01:19;;;;;;;6.50;5.80;;;;;;;31.29;26.16;99102.08;106864;1263;72720;-40
2023/06/18 10:03:47;;;;;;;6.40;5.80;;;;;;;31.27;26.32;99101.77;106853;1264;59609;-41
2023/06/18 10:06:20;;;;;;;7.60;6.40;;;;;;;31.32;26.79;99102.34;106745;1263;59509;-41
2023/06/18 10:08:55;;;;;;;9.60;6.10;;;;;;;31.38;26.54;99101.73;106776;1265;73041;-41
2023/06/18 10:11:23;;;;;;;7.20;6.10;;;;;;;31.44;27.06;99100.31;106821;1264;68349;-41
2023/06/18 10:13:55;;;;;;;7.50;6.60;;;;;;;31.50;26.45;99095.93;106894;1262;71815;-41
2023/06/18 10:16:24;;;;;;;8.60;5.80;;;;;;;31.59;26.93;99094.84;106881;1264;59960;-40
2023/06/18 10:18:55;;;;;;;6.50;5.80;;;;;;;31.67;27.09;99094.48;106741;1264;60059;-40
2023/06/18 10:21:23;;;;;;;7.30;6.00;;;;;;;31.73;26.44;99097.30;106718;1263;73094;-40
2023/06/18 10:23:56;;;;;;;7.10;5.80;;;;;;;31.76;26.79;99097.23;106822;1266;67862;-40
2023/06/18 10:26:25;;;;;;;8.30;5.90;;;;;;;31.80;26.61;99101.92;106826;1265;71519;-41
2023/06/18 10:28:52;;;;;;;6.70;6.00;;;;;;;31.83;26.29;99101.98;107225;1256;60144;-40
2023/06/18 10:31:20;;;;;;;6.40;5.50;;;;;;;31.82;26.48;99098.23;107232;1257;59626;-40
2023/06/18 10:33:48;;;;;;;6.50;5.90;;;;;;;31.85;26.77;99091.31;107166;1256;72967;-41
2023/06/18 10:36:16;;;;;;;7.40;6.50;;;;;;;31.98;26.30;99092.42;107168;1257;66629;-40
2023/06/18 10:38:43;;;;;;;7.50;6.00;;;;;;;32.09;25.90;99084.67;107168;1256;71409;-40
2023/06/18 10:41:12;;;;;;;6.50;5.90;;;;;;;32.22;26.36;99083.73;107223;1257;60091;-41
2023/06/18 10:43:43;;;;;;;6.50;5.80;;;;;;;32.40;26.64;99078.98;107073;1262;60023;-41
2023/06/18 10:46:12;;;;;;;6.50;5.90;;;;;;;32.61;25.34;99079.77;107170;1257;72741;-41
2023/06/18 10:48:40;;;;;;;10.70;6.00;;;;;;;32.82;25.17;99081.64;107229;1259;67886;-41
2023/06/18 10:51:17;;;;;;;6.80;6.10;;;;;;;33.07;24.78;99082.57;107037;1260;72720;-40
2023/06/18 10:53:45;;;;;;;7.30;6.20;;;;;;;33.37;24.37;99078.76;107219;1260;60089;-41
2023/06/18 10:56:16;;;;;;;8.20;6.10;;;;;;;33.61;24.40;99078.21;107104;1260;59554;-40
2023/06/18 10:58:44;;;;;;;7.30;5.80;;;;;;;33.84;24.09;99072.14;107025;1259;73095;-43
2023/06/18 11:01:25;;;;;;;7.80;6.00;;;;;;;34.08;23.58;99075.35;107196;1262;66409;-40
2023/06/18 11:04:05;;;;;;;7.20;5.80;;;;;;;34.32;23.30;99075.08;107315;1261;71845;-41
2023/06/18 11:06:33;;;;;;;6.70;5.60;;;;;;;34.52;22.82;99074.75;107227;1256;60027;-41
2023/06/18 11:09:01;;;;;;;9.70;6.60;;;;;;;34.74;22.25;99069.83;107158;1256;60065;-40
2023/06/18 11:11:38;;;;;;;6.70;5.60;;;;;;;34.95;22.17;99070.42;107204;1260;71797;-42
2023/06/18 11:14:19;;;;;;;6.70;6.00;;;;;;;35.12;21.94;99075.34;107104;1261;68185;-43
2023/06/18 11:17:07;;;;;;;5.80;5.30;;;;;;;35.25;21.67;99074.77;107358;1257;73164;-42
2023/06/18 11:19:36;;;;;;;6.20;5.60;;;;;;;35.23;21.55;99080.34;107260;1259;59224;-39
2023/06/18 11:22:04;;;;;;;9.30;6.40;;;;;;;35.14;21.51;99078.14;107411;1259;60067;-39
2023/06/18 11:24:33;;;;;;;6.90;5.90;;;;;;;35.03;21.49;99080.20;107238;1256;73043;-40
2023/06/18 11:27:00;;;;;;;6.60;5.50;;;;;;;34.97;21.10;99086.43;107177;1256;67879;-40
2023/06/18 11:29:31;;;;;;;6.00;5.50;;;;;;;34.83;21.35;99080.77;107189;1256;71465;-40
2023/06/18 11:31:58;;;;;;;6.80;5.70;;;;;;;34.67;20.81;99080.32;107064;1256;60609;-40
2023/06/18 11:34:26;;;;;;;6.80;6.00;;;;;;;34.37;21.24;99082.86;107050;1257;60198;-41